sensor_id;sensor_type;location;lat;lon;timestamp;P1;durP1;ratioP1;P2;durP2;ratioP2
61135;SDS011;47021;51.340;12.432;2023-02-15T19:00:36;24.07;;;14.53;;
61135;SDS011;47021;51.340;12.432;2023-02-15T19:03:03;26.77;;;16.00;;
61135;SDS011;47021;51.340;12.432;2023-02-15T19:05:32;15.60;;;10.63;;
61135;SDS011;47021;51.340;12.432;2023-02-15T19:07:58;18.17;;;11.68;;
61135;SDS011;47021;51.340;12.432;2023-02-15T19:10:26;20.50;;;11.38;;
61135;SDS011;47021;51.340;12.432;2023-02-15T19:12:54;15.98;;;11.18;;
61135;SDS011;47021;51.340;12.432;2023-02-15T19:15:21;17.17;;;11.65;;
61135;SDS011;47021;51.340;12.432;2023-02-15T19:17:48;30.63;;;13.50;;
61135;SDS011;47021;51.340;12.432;2023-02-15T19:20:15;30.88;;;19.17;;
61135;SDS011;47021;51.340;12.432;2023-02-15T19:22:43;17.88;;;12.13;;
61135;SDS011;47021;51.340;12.432;2023-02-15T19:25:13;16.48;;;11.30;;
61135;SDS011;47021;51.340;12.432;2023-02-15T19:27:43;20.10;;;11.40;;
61135;SDS011;47021;51.340;12.432;2023-02-15T19:30:15;16.60;;;11.82;;
61135;SDS011;47021;51.340;12.432;2023-02-15T19:32:44;19.25;;;11.45;;
61135;SDS011;47021;51.340;12.432;2023-02-15T19:35:17;17.60;;;11.75;;
61135;SDS011;47021;51.340;12.432;2023-02-15T19:37:45;22.13;;;13.27;;
61135;SDS011;47021;51.340;12.432;2023-02-15T19:40:15;22.88;;;13.65;;
61135;SDS011;47021;51.340;12.432;2023-02-15T19:42:45;30.02;;;19.95;;
61135;SDS011;47021;51.340;12.432;2023-02-15T19:45:14;29.08;;;14.73;;
61135;SDS011;47021;51.340;12.432;2023-02-15T19:47:43;20.70;;;11.60;;
61135;SDS011;47021;51.340;12.432;2023-02-15T19:50:17;20.35;;;10.52;;
61135;SDS011;47021;51.340;12.432;2023-02-15T19:52:46;20.55;;;11.07;;
61135;SDS011;47021;51.340;12.432;2023-02-15T19:55:17;30.23;;;13.50;;
61135;SDS011;47021;51.340;12.432;2023-02-15T19:57:49;17.25;;;8.90;;
61135;SDS011;47021;51.340;12.432;2023-02-15T20:00:29;17.85;;;11.35;;
61135;SDS011;47021;51.340;12.432;2023-02-15T20:03:00;15.68;;;11.07;;
61135;SDS011;47021;51.340;12.432;2023-02-15T20:05:29;19.60;;;10.32;;
61135;SDS011;47021;51.340;12.432;2023-02-15T20:07:59;22.65;;;10.25;;
61135;SDS011;47021;51.340;12.432;2023-02-15T20:10:26;21.67;;;10.52;;
61135;SDS011;47021;51.340;12.432;2023-02-15T20:12:56;15.13;;;9.45;;
61135;SDS011;47021;51.340;12.432;2023-02-15T20:17:49;13.13;;;8.82;;
61135;SDS011;47021;51.340;12.432;2023-02-15T20:20:17;15.25;;;9.73;;
61135;SDS011;47021;51.340;12.432;2023-02-15T20:22:46;15.80;;;9.02;;
61135;SDS011;47021;51.340;12.432;2023-02-15T20:25:20;22.77;;;9.65;;
61135;SDS011;47021;51.340;12.432;2023-02-15T20:27:49;24.13;;;14.27;;
61135;SDS011;47021;51.340;12.432;2023-02-15T20:30:16;20.15;;;10.23;;
61135;SDS011;47021;51.340;12.432;2023-02-15T20:32:43;17.58;;;11.50;;
61135;SDS011;47021;51.340;12.432;2023-02-15T20:35:11;17.92;;;11.38;;
61135;SDS011;47021;51.340;12.432;2023-02-15T20:37:47;17.50;;;11.80;;
61135;SDS011;47021;51.340;12.432;2023-02-15T20:40:18;25.15;;;15.43;;
61135;SDS011;47021;51.340;12.432;2023-02-15T20:42:46;17.60;;;9.52;;
61135;SDS011;47021;51.340;12.432;2023-02-15T20:45:22;14.98;;;10.18;;
61135;SDS011;47021;51.340;12.432;2023-02-15T20:47:54;16.52;;;9.38;;
61135;SDS011;47021;51.340;12.432;2023-02-15T20:50:25;14.35;;;9.90;;
61135;SDS011;47021;51.340;12.432;2023-02-15T20:53:07;14.30;;;9.13;;
61135;SDS011;47021;51.340;12.432;2023-02-15T20:55:34;13.48;;;8.77;;
61135;SDS011;47021;51.340;12.432;2023-02-15T20:58:00;15.23;;;9.27;;
61135;SDS011;47021;51.340;12.432;2023-02-15T21:00:28;37.13;;;9.43;;
61135;SDS011;47021;51.340;12.432;2023-02-15T21:02:57;14.25;;;9.13;;
61135;SDS011;47021;51.340;12.432;2023-02-15T21:05:29;16.80;;;9.32;;
61135;SDS011;47021;51.340;12.432;2023-02-15T21:07:56;14.90;;;9.27;;
61135;SDS011;47021;51.340;12.432;2023-02-15T21:10:29;13.20;;;9.50;;
61135;SDS011;47021;51.340;12.432;2023-02-15T21:12:59;11.95;;;9.35;;
61135;SDS011;47021;51.340;12.432;2023-02-15T21:15:37;11.45;;;8.70;;
61135;SDS011;47021;51.340;12.432;2023-02-15T21:18:15;16.52;;;9.98;;
61135;SDS011;47021;51.340;12.432;2023-02-15T21:20:47;17.65;;;10.10;;
61135;SDS011;47021;51.340;12.432;2023-02-15T21:23:19;19.35;;;10.75;;
61135;SDS011;47021;51.340;12.432;2023-02-15T21:25:48;18.35;;;9.45;;
61135;SDS011;47021;51.340;12.432;2023-02-15T21:28:24;15.82;;;9.70;;
61135;SDS011;47021;51.340;12.432;2023-02-15T21:30:57;18.27;;;9.73;;
61135;SDS011;47021;51.340;12.432;2023-02-15T21:33:30;25.67;;;10.23;;
61135;SDS011;47021;51.340;12.432;2023-02-15T21:35:56;195.47;;;89.47;;
61135;SDS011;47021;51.340;12.432;2023-02-15T21:38:24;174.32;;;82.28;;
61135;SDS011;47021;51.340;12.432;2023-02-15T21:40:59;105.25;;;51.03;;
61135;SDS011;47021;51.340;12.432;2023-02-15T21:43:43;94.90;;;43.73;;
61135;SDS011;47021;51.340;12.432;2023-02-15T21:46:12;114.35;;;53.72;;
61135;SDS011;47021;51.340;12.432;2023-02-15T21:48:42;141.80;;;68.22;;
61135;SDS011;47021;51.340;12.432;2023-02-15T21:51:14;29.00;;;16.85;;
61135;SDS011;47021;51.340;12.432;2023-02-15T21:53:41;15.13;;;10.43;;
61135;SDS011;47021;51.340;12.432;2023-02-15T21:58:54;15.55;;;10.05;;
61135;SDS011;47021;51.340;12.432;2023-02-15T22:03:44;12.10;;;9.20;;
61135;SDS011;47021;51.340;12.432;2023-02-15T22:06:10;18.35;;;11.13;;
61135;SDS011;47021;51.340;12.432;2023-02-15T22:08:36;16.73;;;10.70;;
61135;SDS011;47021;51.340;12.432;2023-02-15T22:11:02;15.85;;;11.05;;
61135;SDS011;47021;51.340;12.432;2023-02-15T22:13:32;20.75;;;11.55;;
61135;SDS011;47021;51.340;12.432;2023-02-15T22:15:59;21.73;;;11.23;;
61135;SDS011;47021;51.340;12.432;2023-02-15T22:18:26;17.42;;;11.25;;
61135;SDS011;47021;51.340;12.432;2023-02-15T22:21:00;16.00;;;10.57;;
61135;SDS011;47021;51.340;12.432;2023-02-15T22:23:27;12.23;;;9.03;;
61135;SDS011;47021;51.340;12.432;2023-02-15T22:25:56;13.95;;;10.20;;
61135;SDS011;47021;51.340;12.432;2023-02-15T22:28:27;13.98;;;10.25;;
61135;SDS011;47021;51.340;12.432;2023-02-15T22:30:56;17.00;;;10.32;;
61135;SDS011;47021;51.340;12.432;2023-02-15T22:33:33;16.45;;;10.25;;
61135;SDS011;47021;51.340;12.432;2023-02-15T22:36:00;14.65;;;10.23;;
61135;SDS011;47021;51.340;12.432;2023-02-15T22:38:32;18.38;;;10.48;;
61135;SDS011;47021;51.340;12.432;2023-02-15T22:41:00;13.63;;;9.68;;
61135;SDS011;47021;51.340;12.432;2023-02-15T22:46:03;16.90;;;10.32;;
61135;SDS011;47021;51.340;12.432;2023-02-15T22:48:32;20.95;;;10.73;;
61135;SDS011;47021;51.340;12.432;2023-02-15T22:50:58;16.35;;;9.90;;
61135;SDS011;47021;51.340;12.432;2023-02-15T22:53:23;18.77;;;9.40;;
61135;SDS011;47021;51.340;12.432;2023-02-15T22:55:48;15.43;;;10.23;;
61135;SDS011;47021;51.340;12.432;2023-02-15T22:58:15;21.52;;;12.00;;
61135;SDS011;47021;51.340;12.432;2023-02-15T23:00:44;20.92;;;13.63;;
61135;SDS011;47021;51.340;12.432;2023-02-15T23:03:13;26.25;;;13.40;;
61135;SDS011;47021;51.340;12.432;2023-02-15T23:05:44;16.25;;;10.68;;
61135;SDS011;47021;51.340;12.432;2023-02-15T23:08:10;15.38;;;10.40;;
61135;SDS011;47021;51.340;12.432;2023-02-15T23:10:36;20.42;;;9.80;;
61135;SDS011;47021;51.340;12.432;2023-02-15T23:13:06;16.13;;;9.93;;
61135;SDS011;47021;51.340;12.432;2023-02-15T23:15:44;15.85;;;10.73;;
61135;SDS011;47021;51.340;12.432;2023-02-15T23:20:41;13.73;;;8.43;;
61135;SDS011;47021;51.340;12.432;2023-02-15T23:23:09;20.48;;;11.18;;
61135;SDS011;47021;51.340;12.432;2023-02-15T23:25:36;19.05;;;10.65;;
61135;SDS011;47021;51.340;12.432;2023-02-15T23:31:01;14.15;;;10.27;;
61135;SDS011;47021;51.340;12.432;2023-02-15T23:33:29;19.02;;;9.57;;
61135;SDS011;47021;51.340;12.432;2023-02-15T23:35:57;19.70;;;10.80;;
61135;SDS011;47021;51.340;12.432;2023-02-15T23:38:29;16.58;;;10.15;;
61135;SDS011;47021;51.340;12.432;2023-02-15T23:40:59;18.48;;;9.40;;
61135;SDS011;47021;51.340;12.432;2023-02-15T23:43:33;16.98;;;9.95;;
61135;SDS011;47021;51.340;12.432;2023-02-15T23:45:59;14.32;;;8.95;;
61135;SDS011;47021;51.340;12.432;2023-02-15T23:48:36;13.27;;;8.52;;
61135;SDS011;47021;51.340;12.432;2023-02-15T23:51:09;19.58;;;8.95;;
61135;SDS011;47021;51.340;12.432;2023-02-15T23:56:13;12.13;;;8.45;;
61135;SDS011;47021;51.340;12.432;2023-02-15T23:58:39;11.55;;;8.23;;
